sensor_id;sensor_type;location;lat;lon;timestamp;P1;durP1;ratioP1;P2;durP2;ratioP2
77103;SDS011;66052;43.498;3.710;2022-12-18T00:01:13;18.23;;;11.57;;
77103;SDS011;66052;43.498;3.710;2022-12-18T00:03:41;21.27;;;12.43;;
77103;SDS011;66052;43.498;3.710;2022-12-18T00:06:06;17.70;;;11.68;;
77103;SDS011;66052;43.498;3.710;2022-12-18T00:08:34;15.60;;;10.63;;
77103;SDS011;66052;43.498;3.710;2022-12-18T00:11:06;16.80;;;10.90;;
77103;SDS011;66052;43.498;3.710;2022-12-18T00:13:33;19.60;;;12.05;;
77103;SDS011;66052;43.498;3.710;2022-12-18T00:16:07;20.17;;;12.50;;
77103;SDS011;66052;43.498;3.710;2022-12-18T00:18:34;16.88;;;11.35;;
77103;SDS011;66052;43.498;3.710;2022-12-18T00:21:04;22.27;;;13.73;;
77103;SDS011;66052;43.498;3.710;2022-12-18T00:23:32;18.67;;;12.05;;
77103;SDS011;66052;43.498;3.710;2022-12-18T00:25:59;21.00;;;12.45;;
77103;SDS011;66052;43.498;3.710;2022-12-18T00:28:30;20.30;;;11.98;;
77103;SDS011;66052;43.498;3.710;2022-12-18T00:31:02;16.58;;;10.75;;
77103;SDS011;66052;43.498;3.710;2022-12-18T00:33:33;16.45;;;10.32;;
77103;SDS011;66052;43.498;3.710;2022-12-18T00:36:02;24.70;;;12.30;;
77103;SDS011;66052;43.498;3.710;2022-12-18T00:38:32;18.05;;;10.45;;
77103;SDS011;66052;43.498;3.710;2022-12-18T00:40:59;17.63;;;11.27;;
77103;SDS011;66052;43.498;3.710;2022-12-18T00:43:25;19.50;;;11.48;;
77103;SDS011;66052;43.498;3.710;2022-12-18T00:45:50;15.75;;;10.52;;
77103;SDS011;66052;43.498;3.710;2022-12-18T00:48:16;14.27;;;9.63;;
77103;SDS011;66052;43.498;3.710;2022-12-18T00:50:42;15.73;;;10.40;;
77103;SDS011;66052;43.498;3.710;2022-12-18T00:53:07;13.65;;;9.23;;
77103;SDS011;66052;43.498;3.710;2022-12-18T00:55:34;13.10;;;9.00;;
77103;SDS011;66052;43.498;3.710;2022-12-18T00:57:59;14.45;;;8.95;;
77103;SDS011;66052;43.498;3.710;2022-12-18T01:00:25;12.35;;;9.02;;
77103;SDS011;66052;43.498;3.710;2022-12-18T01:02:51;13.63;;;9.30;;
77103;SDS011;66052;43.498;3.710;2022-12-18T01:05:16;13.93;;;8.75;;
77103;SDS011;66052;43.498;3.710;2022-12-18T01:07:42;10.88;;;7.38;;
77103;SDS011;66052;43.498;3.710;2022-12-18T01:10:09;12.73;;;8.50;;
77103;SDS011;66052;43.498;3.710;2022-12-18T01:12:37;14.43;;;9.38;;
77103;SDS011;66052;43.498;3.710;2022-12-18T01:15:03;20.70;;;12.07;;
77103;SDS011;66052;43.498;3.710;2022-12-18T01:17:30;33.53;;;17.27;;
77103;SDS011;66052;43.498;3.710;2022-12-18T01:19:55;22.45;;;13.32;;
77103;SDS011;66052;43.498;3.710;2022-12-18T01:22:21;20.42;;;11.90;;
77103;SDS011;66052;43.498;3.710;2022-12-18T01:24:47;17.00;;;10.52;;
77103;SDS011;66052;43.498;3.710;2022-12-18T01:27:12;14.43;;;9.27;;
77103;SDS011;66052;43.498;3.710;2022-12-18T01:29:38;13.35;;;8.93;;
77103;SDS011;66052;43.498;3.710;2022-12-18T01:32:04;15.05;;;8.80;;
77103;SDS011;66052;43.498;3.710;2022-12-18T01:34:29;13.60;;;8.38;;
77103;SDS011;66052;43.498;3.710;2022-12-18T01:36:55;11.82;;;8.13;;
77103;SDS011;66052;43.498;3.710;2022-12-18T01:39:21;13.30;;;7.35;;
77103;SDS011;66052;43.498;3.710;2022-12-18T01:41:47;11.13;;;6.90;;
77103;SDS011;66052;43.498;3.710;2022-12-18T01:47:19;9.65;;;6.35;;
77103;SDS011;66052;43.498;3.710;2022-12-18T01:49:45;8.82;;;6.28;;
77103;SDS011;66052;43.498;3.710;2022-12-18T01:52:11;8.85;;;6.40;;
77103;SDS011;66052;43.498;3.710;2022-12-18T01:54:37;9.10;;;6.43;;
77103;SDS011;66052;43.498;3.710;2022-12-18T01:57:02;8.52;;;5.93;;
77103;SDS011;66052;43.498;3.710;2022-12-18T01:59:28;8.68;;;5.78;;
77103;SDS011;66052;43.498;3.710;2022-12-18T02:01:55;9.05;;;6.15;;
77103;SDS011;66052;43.498;3.710;2022-12-18T02:04:23;8.75;;;5.97;;
77103;SDS011;66052;43.498;3.710;2022-12-18T02:06:52;8.30;;;5.82;;
77103;SDS011;66052;43.498;3.710;2022-12-18T02:09:54;8.70;;;5.82;;
77103;SDS011;66052;43.498;3.710;2022-12-18T02:12:27;9.07;;;6.18;;
77103;SDS011;66052;43.498;3.710;2022-12-18T02:15:15;8.38;;;5.80;;
77103;SDS011;66052;43.498;3.710;2022-12-18T02:18:08;9.47;;;6.00;;
77103;SDS011;66052;43.498;3.710;2022-12-18T02:23:47;10.02;;;6.10;;
77103;SDS011;66052;43.498;3.710;2022-12-18T02:29:13;9.52;;;6.15;;
77103;SDS011;66052;43.498;3.710;2022-12-18T02:31:52;7.80;;;5.40;;
77103;SDS011;66052;43.498;3.710;2022-12-18T02:34:21;8.60;;;6.15;;
77103;SDS011;66052;43.498;3.710;2022-12-18T02:36:50;8.30;;;5.95;;
77103;SDS011;66052;43.498;3.710;2022-12-18T02:39:18;9.60;;;6.53;;
77103;SDS011;66052;43.498;3.710;2022-12-18T02:41:46;8.20;;;5.75;;
77103;SDS011;66052;43.498;3.710;2022-12-18T02:44:13;9.77;;;6.78;;
77103;SDS011;66052;43.498;3.710;2022-12-18T02:49:17;9.77;;;6.47;;
77103;SDS011;66052;43.498;3.710;2022-12-18T02:52:09;12.23;;;6.85;;
77103;SDS011;66052;43.498;3.710;2022-12-18T02:57:44;10.75;;;6.47;;
77103;SDS011;66052;43.498;3.710;2022-12-18T03:05:35;10.50;;;6.55;;
77103;SDS011;66052;43.498;3.710;2022-12-18T03:08:26;9.10;;;6.43;;
77103;SDS011;66052;43.498;3.710;2022-12-18T03:10:56;9.38;;;6.65;;
77103;SDS011;66052;43.498;3.710;2022-12-18T03:13:30;10.48;;;7.05;;
77103;SDS011;66052;43.498;3.710;2022-12-18T03:16:21;9.55;;;6.68;;
77103;SDS011;66052;43.498;3.710;2022-12-18T03:19:07;9.40;;;6.60;;
77103;SDS011;66052;43.498;3.710;2022-12-18T03:21:37;8.98;;;6.70;;
77103;SDS011;66052;43.498;3.710;2022-12-18T03:24:16;10.73;;;6.38;;
77103;SDS011;66052;43.498;3.710;2022-12-18T03:26:44;9.52;;;6.80;;
77103;SDS011;66052;43.498;3.710;2022-12-18T03:29:17;9.15;;;6.28;;
77103;SDS011;66052;43.498;3.710;2022-12-18T03:31:45;9.85;;;6.97;;
77103;SDS011;66052;43.498;3.710;2022-12-18T03:34:17;10.05;;;6.88;;
77103;SDS011;66052;43.498;3.710;2022-12-18T03:36:48;9.93;;;6.93;;
77103;SDS011;66052;43.498;3.710;2022-12-18T03:39:14;9.38;;;6.57;;
77103;SDS011;66052;43.498;3.710;2022-12-18T03:44:48;11.90;;;7.82;;
77103;SDS011;66052;43.498;3.710;2022-12-18T03:50:29;11.18;;;7.65;;
77103;SDS011;66052;43.498;3.710;2022-12-18T03:53:10;14.43;;;7.97;;
77103;SDS011;66052;43.498;3.710;2022-12-18T03:55:46;9.95;;;6.72;;
77103;SDS011;66052;43.498;3.710;2022-12-18T03:58:13;11.10;;;6.90;;
77103;SDS011;66052;43.498;3.710;2022-12-18T04:00:43;9.52;;;6.13;;
77103;SDS011;66052;43.498;3.710;2022-12-18T04:03:09;11.10;;;5.97;;
77103;SDS011;66052;43.498;3.710;2022-12-18T04:05:37;8.23;;;5.93;;
77103;SDS011;66052;43.498;3.710;2022-12-18T04:08:03;7.65;;;5.40;;
77103;SDS011;66052;43.498;3.710;2022-12-18T04:10:30;8.45;;;5.57;;
77103;SDS011;66052;43.498;3.710;2022-12-18T04:12:56;7.32;;;5.80;;
77103;SDS011;66052;43.498;3.710;2022-12-18T04:15:23;8.10;;;5.88;;
77103;SDS011;66052;43.498;3.710;2022-12-18T04:17:49;8.30;;;5.47;;
77103;SDS011;66052;43.498;3.710;2022-12-18T04:20:15;8.75;;;5.40;;
77103;SDS011;66052;43.498;3.710;2022-12-18T04:22:41;8.23;;;5.53;;
77103;SDS011;66052;43.498;3.710;2022-12-18T04:25:07;7.68;;;5.43;;
77103;SDS011;66052;43.498;3.710;2022-12-18T04:27:38;7.55;;;6.00;;
77103;SDS011;66052;43.498;3.710;2022-12-18T04:30:04;9.10;;;6.05;;
77103;SDS011;66052;43.498;3.710;2022-12-18T04:32:30;8.80;;;6.53;;
77103;SDS011;66052;43.498;3.710;2022-12-18T04:34:56;9.45;;;5.97;;
77103;SDS011;66052;43.498;3.710;2022-12-18T04:37:21;7.28;;;5.70;;
77103;SDS011;66052;43.498;3.710;2022-12-18T04:39:47;10.75;;;6.63;;
77103;SDS011;66052;43.498;3.710;2022-12-18T04:42:12;9.60;;;6.57;;
77103;SDS011;66052;43.498;3.710;2022-12-18T04:44:38;10.48;;;6.15;;
77103;SDS011;66052;43.498;3.710;2022-12-18T04:47:04;7.75;;;5.40;;
77103;SDS011;66052;43.498;3.710;2022-12-18T04:49:29;8.07;;;5.53;;
77103;SDS011;66052;43.498;3.710;2022-12-18T04:51:55;8.13;;;5.72;;
77103;SDS011;66052;43.498;3.710;2022-12-18T04:54:21;7.50;;;5.30;;
77103;SDS011;66052;43.498;3.710;2022-12-18T04:56:46;8.38;;;5.70;;
77103;SDS011;66052;43.498;3.710;2022-12-18T04:59:12;7.72;;;5.35;;
77103;SDS011;66052;43.498;3.710;2022-12-18T05:01:38;7.70;;;4.97;;
77103;SDS011;66052;43.498;3.710;2022-12-18T05:04:03;8.10;;;5.35;;
77103;SDS011;66052;43.498;3.710;2022-12-18T05:06:29;7.57;;;5.65;;
77103;SDS011;66052;43.498;3.710;2022-12-18T05:08:55;8.02;;;5.40;;
77103;SDS011;66052;43.498;3.710;2022-12-18T05:11:20;6.70;;;5.07;;
77103;SDS011;66052;43.498;3.710;2022-12-18T05:13:46;7.95;;;5.43;;
77103;SDS011;66052;43.498;3.710;2022-12-18T05:16:12;8.00;;;5.43;;
77103;SDS011;66052;43.498;3.710;2022-12-18T05:18:39;11.23;;;7.18;;
77103;SDS011;66052;43.498;3.710;2022-12-18T05:21:05;14.15;;;8.77;;
77103;SDS011;66052;43.498;3.710;2022-12-18T05:23:30;9.07;;;6.00;;
77103;SDS011;66052;43.498;3.710;2022-12-18T05:25:57;9.27;;;6.18;;
77103;SDS011;66052;43.498;3.710;2022-12-18T05:28:24;21.60;;;12.05;;
77103;SDS011;66052;43.498;3.710;2022-12-18T05:30:52;28.90;;;15.02;;
77103;SDS011;66052;43.498;3.710;2022-12-18T05:33:20;23.75;;;14.25;;
77103;SDS011;66052;43.498;3.710;2022-12-18T05:35:51;16.67;;;10.95;;
77103;SDS011;66052;43.498;3.710;2022-12-18T05:38:21;11.30;;;8.00;;
77103;SDS011;66052;43.498;3.710;2022-12-18T05:40:47;10.45;;;7.30;;
77103;SDS011;66052;43.498;3.710;2022-12-18T05:43:14;8.85;;;6.28;;
77103;SDS011;66052;43.498;3.710;2022-12-18T05:45:40;8.30;;;6.15;;
77103;SDS011;66052;43.498;3.710;2022-12-18T05:48:07;8.30;;;5.60;;
77103;SDS011;66052;43.498;3.710;2022-12-18T05:50:34;9.23;;;6.18;;
77103;SDS011;66052;43.498;3.710;2022-12-18T05:53:01;9.80;;;6.47;;
77103;SDS011;66052;43.498;3.710;2022-12-18T05:55:27;12.20;;;7.38;;
77103;SDS011;66052;43.498;3.710;2022-12-18T05:57:53;9.85;;;6.82;;
77103;SDS011;66052;43.498;3.710;2022-12-18T06:00:19;9.88;;;6.95;;
77103;SDS011;66052;43.498;3.710;2022-12-18T06:02:47;11.50;;;7.22;;
77103;SDS011;66052;43.498;3.710;2022-12-18T06:05:13;9.18;;;6.35;;
77103;SDS011;66052;43.498;3.710;2022-12-18T06:07:39;9.25;;;6.72;;
77103;SDS011;66052;43.498;3.710;2022-12-18T06:10:05;10.75;;;7.45;;
77103;SDS011;66052;43.498;3.710;2022-12-18T06:12:31;11.55;;;7.97;;
77103;SDS011;66052;43.498;3.710;2022-12-18T06:14:58;9.55;;;6.43;;
77103;SDS011;66052;43.498;3.710;2022-12-18T06:17:28;8.98;;;5.68;;
77103;SDS011;66052;43.498;3.710;2022-12-18T06:19:54;8.48;;;5.72;;
77103;SDS011;66052;43.498;3.710;2022-12-18T06:22:20;7.00;;;5.22;;
77103;SDS011;66052;43.498;3.710;2022-12-18T06:24:46;6.88;;;4.53;;
77103;SDS011;66052;43.498;3.710;2022-12-18T06:27:12;6.63;;;4.82;;
77103;SDS011;66052;43.498;3.710;2022-12-18T06:29:38;6.80;;;4.80;;
77103;SDS011;66052;43.498;3.710;2022-12-18T06:32:03;7.43;;;4.97;;
77103;SDS011;66052;43.498;3.710;2022-12-18T06:34:29;8.15;;;5.00;;
77103;SDS011;66052;43.498;3.710;2022-12-18T06:36:55;5.80;;;4.30;;
77103;SDS011;66052;43.498;3.710;2022-12-18T06:39:20;8.63;;;5.13;;
77103;SDS011;66052;43.498;3.710;2022-12-18T06:41:46;6.18;;;4.63;;
77103;SDS011;66052;43.498;3.710;2022-12-18T06:44:12;10.23;;;5.30;;
77103;SDS011;66052;43.498;3.710;2022-12-18T06:46:37;7.38;;;4.63;;
77103;SDS011;66052;43.498;3.710;2022-12-18T06:49:03;6.43;;;4.72;;
77103;SDS011;66052;43.498;3.710;2022-12-18T06:51:29;10.00;;;4.60;;
77103;SDS011;66052;43.498;3.710;2022-12-18T06:53:55;6.05;;;4.18;;
77103;SDS011;66052;43.498;3.710;2022-12-18T06:56:20;6.65;;;4.90;;
77103;SDS011;66052;43.498;3.710;2022-12-18T06:58:46;8.43;;;5.65;;
77103;SDS011;66052;43.498;3.710;2022-12-18T07:01:12;7.82;;;5.60;;
77103;SDS011;66052;43.498;3.710;2022-12-18T07:03:39;7.70;;;5.43;;
77103;SDS011;66052;43.498;3.710;2022-12-18T07:06:13;6.70;;;4.60;;
77103;SDS011;66052;43.498;3.710;2022-12-18T07:08:44;8.48;;;4.80;;
77103;SDS011;66052;43.498;3.710;2022-12-18T07:11:11;6.63;;;4.82;;
77103;SDS011;66052;43.498;3.710;2022-12-18T07:13:37;6.93;;;3.80;;
77103;SDS011;66052;43.498;3.710;2022-12-18T07:16:10;6.60;;;4.10;;
77103;SDS011;66052;43.498;3.710;2022-12-18T07:18:37;5.53;;;4.05;;
77103;SDS011;66052;43.498;3.710;2022-12-18T07:21:03;5.28;;;3.97;;
77103;SDS011;66052;43.498;3.710;2022-12-18T07:23:31;6.60;;;4.40;;
77103;SDS011;66052;43.498;3.710;2022-12-18T07:26:00;6.82;;;4.72;;
77103;SDS011;66052;43.498;3.710;2022-12-18T07:28:30;5.93;;;4.57;;
77103;SDS011;66052;43.498;3.710;2022-12-18T07:30:56;5.47;;;4.35;;
77103;SDS011;66052;43.498;3.710;2022-12-18T07:33:23;5.93;;;4.15;;
77103;SDS011;66052;43.498;3.710;2022-12-18T07:35:50;6.88;;;4.10;;
77103;SDS011;66052;43.498;3.710;2022-12-18T07:38:15;5.53;;;4.35;;
77103;SDS011;66052;43.498;3.710;2022-12-18T07:40:41;6.63;;;4.47;;
77103;SDS011;66052;43.498;3.710;2022-12-18T07:43:06;6.30;;;4.50;;
77103;SDS011;66052;43.498;3.710;2022-12-18T07:45:32;6.65;;;4.70;;
77103;SDS011;66052;43.498;3.710;2022-12-18T07:47:58;8.52;;;4.70;;
77103;SDS011;66052;43.498;3.710;2022-12-18T07:50:24;6.05;;;4.13;;
77103;SDS011;66052;43.498;3.710;2022-12-18T07:52:49;6.35;;;4.22;;
77103;SDS011;66052;43.498;3.710;2022-12-18T07:55:15;6.13;;;4.13;;
77103;SDS011;66052;43.498;3.710;2022-12-18T07:57:41;7.57;;;4.60;;
77103;SDS011;66052;43.498;3.710;2022-12-18T08:00:06;6.38;;;4.32;;
77103;SDS011;66052;43.498;3.710;2022-12-18T08:02:33;6.75;;;4.40;;
77103;SDS011;66052;43.498;3.710;2022-12-18T08:04:59;6.90;;;5.20;;
77103;SDS011;66052;43.498;3.710;2022-12-18T08:07:24;6.93;;;5.10;;
77103;SDS011;66052;43.498;3.710;2022-12-18T08:09:50;7.00;;;4.88;;
77103;SDS011;66052;43.498;3.710;2022-12-18T08:12:16;5.10;;;4.00;;
77103;SDS011;66052;43.498;3.710;2022-12-18T08:14:41;7.65;;;4.40;;
77103;SDS011;66052;43.498;3.710;2022-12-18T08:17:07;6.05;;;4.32;;
77103;SDS011;66052;43.498;3.710;2022-12-18T08:19:33;8.10;;;4.35;;
77103;SDS011;66052;43.498;3.710;2022-12-18T08:21:58;5.53;;;3.90;;
77103;SDS011;66052;43.498;3.710;2022-12-18T08:24:24;5.63;;;3.63;;
77103;SDS011;66052;43.498;3.710;2022-12-18T08:26:50;7.53;;;4.35;;
77103;SDS011;66052;43.498;3.710;2022-12-18T08:29:16;5.53;;;3.80;;
77103;SDS011;66052;43.498;3.710;2022-12-18T08:31:42;5.97;;;4.22;;
77103;SDS011;66052;43.498;3.710;2022-12-18T08:34:08;6.15;;;4.75;;
77103;SDS011;66052;43.498;3.710;2022-12-18T08:36:34;6.88;;;4.20;;
77103;SDS011;66052;43.498;3.710;2022-12-18T08:39:00;6.57;;;4.20;;
77103;SDS011;66052;43.498;3.710;2022-12-18T08:41:25;5.78;;;4.15;;
77103;SDS011;66052;43.498;3.710;2022-12-18T08:43:51;5.57;;;3.90;;
77103;SDS011;66052;43.498;3.710;2022-12-18T08:46:36;7.07;;;4.75;;
77103;SDS011;66052;43.498;3.710;2022-12-18T08:49:04;6.25;;;4.75;;
77103;SDS011;66052;43.498;3.710;2022-12-18T08:51:31;6.10;;;4.40;;
77103;SDS011;66052;43.498;3.710;2022-12-18T08:53:57;7.93;;;4.93;;
77103;SDS011;66052;43.498;3.710;2022-12-18T08:56:23;9.65;;;4.70;;
77103;SDS011;66052;43.498;3.710;2022-12-18T08:58:51;5.57;;;4.10;;
77103;SDS011;66052;43.498;3.710;2022-12-18T09:01:18;6.30;;;4.78;;
77103;SDS011;66052;43.498;3.710;2022-12-18T09:03:45;8.85;;;6.53;;
77103;SDS011;66052;43.498;3.710;2022-12-18T09:06:13;8.07;;;5.57;;
77103;SDS011;66052;43.498;3.710;2022-12-18T09:08:40;7.93;;;5.97;;
77103;SDS011;66052;43.498;3.710;2022-12-18T09:11:11;8.35;;;6.38;;
77103;SDS011;66052;43.498;3.710;2022-12-18T09:13:43;10.10;;;5.53;;
77103;SDS011;66052;43.498;3.710;2022-12-18T09:16:09;7.55;;;5.30;;
77103;SDS011;66052;43.498;3.710;2022-12-18T09:18:35;6.40;;;5.03;;
77103;SDS011;66052;43.498;3.710;2022-12-18T09:21:07;8.38;;;5.88;;
77103;SDS011;66052;43.498;3.710;2022-12-18T09:23:52;10.07;;;6.50;;
77103;SDS011;66052;43.498;3.710;2022-12-18T09:26:19;12.43;;;6.50;;
77103;SDS011;66052;43.498;3.710;2022-12-18T09:28:46;7.93;;;5.80;;
77103;SDS011;66052;43.498;3.710;2022-12-18T09:31:12;8.45;;;5.53;;
77103;SDS011;66052;43.498;3.710;2022-12-18T09:33:39;8.48;;;5.93;;
77103;SDS011;66052;43.498;3.710;2022-12-18T09:36:06;8.35;;;5.72;;
77103;SDS011;66052;43.498;3.710;2022-12-18T09:38:34;8.70;;;5.97;;
77103;SDS011;66052;43.498;3.710;2022-12-18T09:41:02;8.32;;;4.93;;
77103;SDS011;66052;43.498;3.710;2022-12-18T09:46:11;8.25;;;5.70;;
77103;SDS011;66052;43.498;3.710;2022-12-18T09:48:46;9.38;;;5.95;;
77103;SDS011;66052;43.498;3.710;2022-12-18T09:51:15;10.85;;;6.80;;
77103;SDS011;66052;43.498;3.710;2022-12-18T09:53:50;12.35;;;6.97;;
77103;SDS011;66052;43.498;3.710;2022-12-18T09:56:20;10.60;;;6.47;;
77103;SDS011;66052;43.498;3.710;2022-12-18T09:59:00;8.30;;;5.30;;
77103;SDS011;66052;43.498;3.710;2022-12-18T10:01:27;6.85;;;5.35;;
77103;SDS011;66052;43.498;3.710;2022-12-18T10:03:54;11.43;;;7.60;;
77103;SDS011;66052;43.498;3.710;2022-12-18T10:11:43;10.15;;;6.75;;
77103;SDS011;66052;43.498;3.710;2022-12-18T10:17:07;9.45;;;6.20;;
77103;SDS011;66052;43.498;3.710;2022-12-18T10:19:36;9.95;;;6.22;;
77103;SDS011;66052;43.498;3.710;2022-12-18T10:28:10;10.00;;;6.13;;
77103;SDS011;66052;43.498;3.710;2022-12-18T10:30:38;10.30;;;7.30;;
77103;SDS011;66052;43.498;3.710;2022-12-18T10:33:05;13.90;;;10.18;;
77103;SDS011;66052;43.498;3.710;2022-12-18T10:35:31;13.32;;;9.95;;
77103;SDS011;66052;43.498;3.710;2022-12-18T10:40:50;10.25;;;7.03;;
77103;SDS011;66052;43.498;3.710;2022-12-18T10:43:36;11.18;;;7.15;;
77103;SDS011;66052;43.498;3.710;2022-12-18T10:51:06;15.65;;;11.43;;
77103;SDS011;66052;43.498;3.710;2022-12-18T10:53:33;18.27;;;12.57;;
77103;SDS011;66052;43.498;3.710;2022-12-18T10:56:02;13.35;;;8.95;;
77103;SDS011;66052;43.498;3.710;2022-12-18T10:58:33;24.60;;;15.38;;
77103;SDS011;66052;43.498;3.710;2022-12-18T11:06:23;16.98;;;10.75;;
77103;SDS011;66052;43.498;3.710;2022-12-18T11:08:57;13.00;;;9.45;;
77103;SDS011;66052;43.498;3.710;2022-12-18T11:11:28;17.25;;;11.43;;
77103;SDS011;66052;43.498;3.710;2022-12-18T11:16:49;17.25;;;12.48;;
77103;SDS011;66052;43.498;3.710;2022-12-18T11:21:51;19.90;;;12.13;;
77103;SDS011;66052;43.498;3.710;2022-12-18T11:24:19;16.05;;;10.73;;
77103;SDS011;66052;43.498;3.710;2022-12-18T11:27:00;16.50;;;11.55;;
77103;SDS011;66052;43.498;3.710;2022-12-18T11:29:32;18.27;;;10.88;;
77103;SDS011;66052;43.498;3.710;2022-12-18T11:34:41;20.73;;;12.70;;
77103;SDS011;66052;43.498;3.710;2022-12-18T11:37:11;13.10;;;8.55;;
77103;SDS011;66052;43.498;3.710;2022-12-18T11:39:58;14.52;;;9.82;;
77103;SDS011;66052;43.498;3.710;2022-12-18T11:42:35;13.35;;;8.93;;
77103;SDS011;66052;43.498;3.710;2022-12-18T11:47:43;23.80;;;15.52;;
77103;SDS011;66052;43.498;3.710;2022-12-18T11:50:20;16.17;;;11.18;;
77103;SDS011;66052;43.498;3.710;2022-12-18T11:52:50;13.30;;;8.63;;
77103;SDS011;66052;43.498;3.710;2022-12-18T11:55:20;15.88;;;10.85;;
77103;SDS011;66052;43.498;3.710;2022-12-18T12:00:55;15.60;;;12.05;;
77103;SDS011;66052;43.498;3.710;2022-12-18T12:33:59;18.33;;;12.30;;
77103;SDS011;66052;43.498;3.710;2022-12-18T12:39:11;18.45;;;11.70;;
77103;SDS011;66052;43.498;3.710;2022-12-18T12:41:41;23.17;;;13.27;;
77103;SDS011;66052;43.498;3.710;2022-12-18T12:44:29;19.95;;;13.50;;
77103;SDS011;66052;43.498;3.710;2022-12-18T12:47:23;28.38;;;16.63;;
77103;SDS011;66052;43.498;3.710;2022-12-18T12:49:52;27.40;;;16.27;;
77103;SDS011;66052;43.498;3.710;2022-12-18T12:52:27;25.13;;;15.80;;
77103;SDS011;66052;43.498;3.710;2022-12-18T12:55:04;22.60;;;14.70;;
77103;SDS011;66052;43.498;3.710;2022-12-18T12:57:36;21.63;;;12.90;;
77103;SDS011;66052;43.498;3.710;2022-12-18T13:00:10;28.88;;;15.98;;
77103;SDS011;66052;43.498;3.710;2022-12-18T13:08:08;23.25;;;14.77;;
77103;SDS011;66052;43.498;3.710;2022-12-18T13:10:36;25.63;;;14.65;;
77103;SDS011;66052;43.498;3.710;2022-12-18T13:16:02;20.27;;;12.90;;
77103;SDS011;66052;43.498;3.710;2022-12-18T13:18:32;25.60;;;15.15;;
77103;SDS011;66052;43.498;3.710;2022-12-18T13:31:10;13.70;;;9.85;;
77103;SDS011;66052;43.498;3.710;2022-12-18T13:33:37;13.40;;;9.20;;
77103;SDS011;66052;43.498;3.710;2022-12-18T13:36:10;13.73;;;9.70;;
77103;SDS011;66052;43.498;3.710;2022-12-18T13:38:38;18.33;;;10.88;;
77103;SDS011;66052;43.498;3.710;2022-12-18T13:43:45;14.98;;;10.60;;
77103;SDS011;66052;43.498;3.710;2022-12-18T13:49:05;16.58;;;11.02;;
77103;SDS011;66052;43.498;3.710;2022-12-18T13:51:48;15.13;;;11.20;;
77103;SDS011;66052;43.498;3.710;2022-12-18T13:57:34;14.23;;;10.00;;
77103;SDS011;66052;43.498;3.710;2022-12-18T14:02:51;14.30;;;10.27;;
77103;SDS011;66052;43.498;3.710;2022-12-18T14:08:03;19.17;;;12.50;;
77103;SDS011;66052;43.498;3.710;2022-12-18T14:10:31;15.93;;;9.75;;
77103;SDS011;66052;43.498;3.710;2022-12-18T14:12:58;15.85;;;11.25;;
77103;SDS011;66052;43.498;3.710;2022-12-18T14:15:34;20.95;;;13.90;;
77103;SDS011;66052;43.498;3.710;2022-12-18T14:20:54;19.90;;;13.05;;
77103;SDS011;66052;43.498;3.710;2022-12-18T14:23:30;19.52;;;14.40;;
77103;SDS011;66052;43.498;3.710;2022-12-18T14:25:56;20.83;;;15.23;;
77103;SDS011;66052;43.498;3.710;2022-12-18T14:28:22;22.15;;;15.43;;
77103;SDS011;66052;43.498;3.710;2022-12-18T14:30:48;26.52;;;19.20;;
77103;SDS011;66052;43.498;3.710;2022-12-18T14:33:16;22.48;;;14.93;;
77103;SDS011;66052;43.498;3.710;2022-12-18T14:41:04;17.45;;;11.90;;
77103;SDS011;66052;43.498;3.710;2022-12-18T14:43:41;18.88;;;13.68;;
77103;SDS011;66052;43.498;3.710;2022-12-18T14:48:59;27.38;;;17.60;;
77103;SDS011;66052;43.498;3.710;2022-12-18T14:51:48;37.00;;;22.95;;
77103;SDS011;66052;43.498;3.710;2022-12-18T14:54:17;30.75;;;19.95;;
77103;SDS011;66052;43.498;3.710;2022-12-18T14:56:51;23.20;;;16.10;;
77103;SDS011;66052;43.498;3.710;2022-12-18T14:59:24;25.90;;;15.82;;
77103;SDS011;66052;43.498;3.710;2022-12-18T15:05:03;24.75;;;14.82;;
77103;SDS011;66052;43.498;3.710;2022-12-18T15:07:43;27.88;;;15.80;;
77103;SDS011;66052;43.498;3.710;2022-12-18T15:10:17;24.65;;;17.00;;
77103;SDS011;66052;43.498;3.710;2022-12-18T15:12:48;27.30;;;17.08;;
77103;SDS011;66052;43.498;3.710;2022-12-18T15:20:29;25.20;;;15.80;;
77103;SDS011;66052;43.498;3.710;2022-12-18T15:22:57;35.53;;;19.83;;
77103;SDS011;66052;43.498;3.710;2022-12-18T15:25:34;39.80;;;21.98;;
77103;SDS011;66052;43.498;3.710;2022-12-18T15:28:02;24.40;;;15.80;;
77103;SDS011;66052;43.498;3.710;2022-12-18T15:30:28;26.45;;;16.48;;
77103;SDS011;66052;43.498;3.710;2022-12-18T15:36:00;25.73;;;16.70;;
77103;SDS011;66052;43.498;3.710;2022-12-18T15:38:27;23.85;;;16.23;;
77103;SDS011;66052;43.498;3.710;2022-12-18T15:40:53;23.33;;;13.90;;
77103;SDS011;66052;43.498;3.710;2022-12-18T15:43:22;15.68;;;11.68;;
77103;SDS011;66052;43.498;3.710;2022-12-18T15:48:33;19.55;;;13.60;;
77103;SDS011;66052;43.498;3.710;2022-12-18T15:51:00;15.20;;;11.55;;
77103;SDS011;66052;43.498;3.710;2022-12-18T15:53:30;18.85;;;11.90;;
77103;SDS011;66052;43.498;3.710;2022-12-18T15:55:58;20.35;;;11.32;;
77103;SDS011;66052;43.498;3.710;2022-12-18T15:58:42;18.17;;;12.40;;
77103;SDS011;66052;43.498;3.710;2022-12-18T16:01:08;20.10;;;12.90;;
77103;SDS011;66052;43.498;3.710;2022-12-18T16:03:35;29.67;;;19.20;;
77103;SDS011;66052;43.498;3.710;2022-12-18T16:06:01;20.35;;;14.90;;
77103;SDS011;66052;43.498;3.710;2022-12-18T16:08:30;25.92;;;18.58;;
77103;SDS011;66052;43.498;3.710;2022-12-18T16:10:56;22.13;;;15.25;;
77103;SDS011;66052;43.498;3.710;2022-12-18T16:13:23;18.35;;;12.90;;
77103;SDS011;66052;43.498;3.710;2022-12-18T16:15:49;18.95;;;12.77;;
77103;SDS011;66052;43.498;3.710;2022-12-18T16:18:14;19.65;;;13.70;;
77103;SDS011;66052;43.498;3.710;2022-12-18T16:20:40;21.17;;;14.45;;
77103;SDS011;66052;43.498;3.710;2022-12-18T16:23:06;22.50;;;14.38;;
77103;SDS011;66052;43.498;3.710;2022-12-18T16:25:32;19.70;;;14.27;;
77103;SDS011;66052;43.498;3.710;2022-12-18T16:27:58;20.50;;;13.82;;
77103;SDS011;66052;43.498;3.710;2022-12-18T16:30:25;18.13;;;12.57;;
77103;SDS011;66052;43.498;3.710;2022-12-18T16:32:53;17.63;;;13.18;;
77103;SDS011;66052;43.498;3.710;2022-12-18T16:35:19;20.92;;;14.63;;
77103;SDS011;66052;43.498;3.710;2022-12-18T16:37:45;21.35;;;14.13;;
77103;SDS011;66052;43.498;3.710;2022-12-18T16:40:12;22.70;;;16.02;;
77103;SDS011;66052;43.498;3.710;2022-12-18T16:42:41;24.83;;;12.63;;
77103;SDS011;66052;43.498;3.710;2022-12-18T16:45:08;18.90;;;13.85;;
77103;SDS011;66052;43.498;3.710;2022-12-18T16:47:36;24.42;;;14.13;;
77103;SDS011;66052;43.498;3.710;2022-12-18T16:50:02;18.70;;;12.93;;
77103;SDS011;66052;43.498;3.710;2022-12-18T16:52:29;17.83;;;11.88;;
77103;SDS011;66052;43.498;3.710;2022-12-18T16:54:55;22.92;;;15.18;;
77103;SDS011;66052;43.498;3.710;2022-12-18T16:57:21;20.70;;;14.48;;
77103;SDS011;66052;43.498;3.710;2022-12-18T16:59:47;24.00;;;16.10;;
77103;SDS011;66052;43.498;3.710;2022-12-18T17:02:13;26.85;;;17.70;;
77103;SDS011;66052;43.498;3.710;2022-12-18T17:04:42;23.80;;;16.85;;
77103;SDS011;66052;43.498;3.710;2022-12-18T17:07:08;24.90;;;15.70;;
77103;SDS011;66052;43.498;3.710;2022-12-18T17:09:34;38.97;;;21.08;;
77103;SDS011;66052;43.498;3.710;2022-12-18T17:12:00;35.72;;;21.92;;
77103;SDS011;66052;43.498;3.710;2022-12-18T17:14:26;39.90;;;22.77;;
77103;SDS011;66052;43.498;3.710;2022-12-18T17:16:52;29.98;;;19.98;;
77103;SDS011;66052;43.498;3.710;2022-12-18T17:19:18;32.45;;;20.20;;
77103;SDS011;66052;43.498;3.710;2022-12-18T17:21:46;26.70;;;18.25;;
77103;SDS011;66052;43.498;3.710;2022-12-18T17:24:13;31.63;;;21.40;;
77103;SDS011;66052;43.498;3.710;2022-12-18T17:26:39;16.05;;;7.95;;